sensor_id;sensor_type;location;lat;lon;timestamp;temperature;humidity
25440;DHT22;13365;52.208;5.488;2022-09-01T00:00:58;18.90;85.00
25440;DHT22;13365;52.208;5.488;2022-09-01T00:03:24;19.00;84.90
25440;DHT22;13365;52.208;5.488;2022-09-01T00:05:50;18.90;85.20
25440;DHT22;13365;52.208;5.488;2022-09-01T00:08:19;19.00;85.10
25440;DHT22;13365;52.208;5.488;2022-09-01T00:10:45;19.00;85.40
25440;DHT22;13365;52.208;5.488;2022-09-01T00:13:11;18.90;85.60
25440;DHT22;13365;52.208;5.488;2022-09-01T00:15:36;18.90;85.80
25440;DHT22;13365;52.208;5.488;2022-09-01T00:18:02;18.70;86.20
25440;DHT22;13365;52.208;5.488;2022-09-01T00:20:28;18.70;86.90
25440;DHT22;13365;52.208;5.488;2022-09-01T00:22:53;18.60;87.40
25440;DHT22;13365;52.208;5.488;2022-09-01T00:25:20;18.50;87.80
25440;DHT22;13365;52.208;5.488;2022-09-01T00:27:46;18.40;88.20
25440;DHT22;13365;52.208;5.488;2022-09-01T00:30:12;18.40;88.60
25440;DHT22;13365;52.208;5.488;2022-09-01T00:32:47;18.40;88.90
25440;DHT22;13365;52.208;5.488;2022-09-01T00:35:15;18.40;89.00
25440;DHT22;13365;52.208;5.488;2022-09-01T00:37:40;18.40;89.20
25440;DHT22;13365;52.208;5.488;2022-09-01T00:40:06;18.40;89.30
25440;DHT22;13365;52.208;5.488;2022-09-01T00:42:32;18.30;89.50
25440;DHT22;13365;52.208;5.488;2022-09-01T00:44:58;18.20;89.80
25440;DHT22;13365;52.208;5.488;2022-09-01T00:47:23;18.30;89.90
25440;DHT22;13365;52.208;5.488;2022-09-01T00:49:49;18.30;90.00
25440;DHT22;13365;52.208;5.488;2022-09-01T00:52:17;18.30;90.10
25440;DHT22;13365;52.208;5.488;2022-09-01T00:54:44;18.10;90.30
25440;DHT22;13365;52.208;5.488;2022-09-01T00:57:10;18.10;90.40
25440;DHT22;13365;52.208;5.488;2022-09-01T00:59:38;18.00;90.50
25440;DHT22;13365;52.208;5.488;2022-09-01T01:02:05;18.00;90.60
25440;DHT22;13365;52.208;5.488;2022-09-01T01:04:30;18.10;90.50
25440;DHT22;13365;52.208;5.488;2022-09-01T01:06:56;18.10;90.50
25440;DHT22;13365;52.208;5.488;2022-09-01T01:09:26;18.20;90.50
25440;DHT22;13365;52.208;5.488;2022-09-01T01:11:53;18.20;90.30
25440;DHT22;13365;52.208;5.488;2022-09-01T01:14:19;18.00;90.30
25440;DHT22;13365;52.208;5.488;2022-09-01T01:16:46;18.20;90.50
25440;DHT22;13365;52.208;5.488;2022-09-01T01:22:19;18.10;90.60
25440;DHT22;13365;52.208;5.488;2022-09-01T01:25:04;18.00;90.60
25440;DHT22;13365;52.208;5.488;2022-09-01T01:27:34;17.90;90.70
25440;DHT22;13365;52.208;5.488;2022-09-01T01:30:03;17.90;90.80
25440;DHT22;13365;52.208;5.488;2022-09-01T01:32:30;17.80;90.90
25440;DHT22;13365;52.208;5.488;2022-09-01T01:34:57;17.90;90.90
25440;DHT22;13365;52.208;5.488;2022-09-01T01:37:26;17.80;90.90
25440;DHT22;13365;52.208;5.488;2022-09-01T01:39:51;17.80;91.00
25440;DHT22;13365;52.208;5.488;2022-09-01T01:42:17;17.70;90.90
25440;DHT22;13365;52.208;5.488;2022-09-01T01:44:42;17.90;90.80
25440;DHT22;13365;52.208;5.488;2022-09-01T01:47:09;17.90;90.80
25440;DHT22;13365;52.208;5.488;2022-09-01T01:49:37;17.90;90.70
25440;DHT22;13365;52.208;5.488;2022-09-01T01:52:08;17.80;90.70
25440;DHT22;13365;52.208;5.488;2022-09-01T01:54:33;17.90;90.70
25440;DHT22;13365;52.208;5.488;2022-09-01T01:56:59;17.90;90.70
25440;DHT22;13365;52.208;5.488;2022-09-01T01:59:25;17.90;90.60
25440;DHT22;13365;52.208;5.488;2022-09-01T02:01:51;18.00;90.40
25440;DHT22;13365;52.208;5.488;2022-09-01T02:04:19;18.10;90.10
25440;DHT22;13365;52.208;5.488;2022-09-01T02:06:45;18.00;90.10
25440;DHT22;13365;52.208;5.488;2022-09-01T02:09:13;18.10;90.00
25440;DHT22;13365;52.208;5.488;2022-09-01T02:11:38;18.00;90.00
25440;DHT22;13365;52.208;5.488;2022-09-01T02:14:05;18.00;90.00
25440;DHT22;13365;52.208;5.488;2022-09-01T02:16:31;18.00;90.10
25440;DHT22;13365;52.208;5.488;2022-09-01T02:18:57;17.90;90.20
25440;DHT22;13365;52.208;5.488;2022-09-01T02:21:24;17.90;90.30
25440;DHT22;13365;52.208;5.488;2022-09-01T02:23:51;17.80;90.40
25440;DHT22;13365;52.208;5.488;2022-09-01T02:26:23;17.70;90.50
25440;DHT22;13365;52.208;5.488;2022-09-01T02:28:54;17.80;90.30
25440;DHT22;13365;52.208;5.488;2022-09-01T02:31:19;17.80;90.40
25440;DHT22;13365;52.208;5.488;2022-09-01T02:33:47;17.80;90.40
25440;DHT22;13365;52.208;5.488;2022-09-01T02:36:13;17.70;90.40
25440;DHT22;13365;52.208;5.488;2022-09-01T02:38:40;17.80;90.30
25440;DHT22;13365;52.208;5.488;2022-09-01T02:41:10;17.80;90.30
25440;DHT22;13365;52.208;5.488;2022-09-01T02:43:37;17.70;90.10
25440;DHT22;13365;52.208;5.488;2022-09-01T02:46:04;17.90;90.20
25440;DHT22;13365;52.208;5.488;2022-09-01T02:48:31;18.00;90.00
25440;DHT22;13365;52.208;5.488;2022-09-01T02:51:01;17.90;90.20
25440;DHT22;13365;52.208;5.488;2022-09-01T02:53:27;17.90;90.00
25440;DHT22;13365;52.208;5.488;2022-09-01T02:55:53;18.00;89.70
25440;DHT22;13365;52.208;5.488;2022-09-01T02:58:23;18.00;89.40
25440;DHT22;13365;52.208;5.488;2022-09-01T03:00:53;17.90;89.30
25440;DHT22;13365;52.208;5.488;2022-09-01T03:03:18;17.90;89.30
25440;DHT22;13365;52.208;5.488;2022-09-01T03:05:44;17.90;89.20
25440;DHT22;13365;52.208;5.488;2022-09-01T03:08:10;18.00;88.80
25440;DHT22;13365;52.208;5.488;2022-09-01T03:10:37;18.10;88.30
25440;DHT22;13365;52.208;5.488;2022-09-01T03:13:07;18.20;88.20
25440;DHT22;13365;52.208;5.488;2022-09-01T03:15:33;18.20;87.60
25440;DHT22;13365;52.208;5.488;2022-09-01T03:18:01;18.40;87.10
25440;DHT22;13365;52.208;5.488;2022-09-01T03:20:27;18.50;86.30
25440;DHT22;13365;52.208;5.488;2022-09-01T03:22:54;18.60;85.50
25440;DHT22;13365;52.208;5.488;2022-09-01T03:25:22;18.60;85.00
25440;DHT22;13365;52.208;5.488;2022-09-01T03:27:50;18.60;85.10
25440;DHT22;13365;52.208;5.488;2022-09-01T03:30:15;18.50;85.10
25440;DHT22;13365;52.208;5.488;2022-09-01T03:32:41;18.30;85.30
25440;DHT22;13365;52.208;5.488;2022-09-01T03:35:07;18.30;85.80
25440;DHT22;13365;52.208;5.488;2022-09-01T03:37:33;18.20;85.90
25440;DHT22;13365;52.208;5.488;2022-09-01T03:40:01;18.00;86.30
25440;DHT22;13365;52.208;5.488;2022-09-01T03:42:28;18.00;86.40
25440;DHT22;13365;52.208;5.488;2022-09-01T03:44:55;18.00;86.50
25440;DHT22;13365;52.208;5.488;2022-09-01T03:47:21;17.80;87.10
25440;DHT22;13365;52.208;5.488;2022-09-01T03:49:48;17.80;87.50
25440;DHT22;13365;52.208;5.488;2022-09-01T03:52:18;17.50;87.90
25440;DHT22;13365;52.208;5.488;2022-09-01T03:54:43;17.50;88.10
25440;DHT22;13365;52.208;5.488;2022-09-01T03:57:09;17.40;88.20
25440;DHT22;13365;52.208;5.488;2022-09-01T03:59:36;17.50;88.40
25440;DHT22;13365;52.208;5.488;2022-09-01T04:02:03;17.30;88.40
25440;DHT22;13365;52.208;5.488;2022-09-01T04:04:28;17.50;88.10
25440;DHT22;13365;52.208;5.488;2022-09-01T04:06:57;17.50;87.90
25440;DHT22;13365;52.208;5.488;2022-09-01T04:09:24;17.70;87.30
25440;DHT22;13365;52.208;5.488;2022-09-01T04:11:50;17.80;86.60
25440;DHT22;13365;52.208;5.488;2022-09-01T04:14:15;18.00;85.80
25440;DHT22;13365;52.208;5.488;2022-09-01T04:16:41;18.00;85.30
25440;DHT22;13365;52.208;5.488;2022-09-01T04:19:26;18.10;84.60
25440;DHT22;13365;52.208;5.488;2022-09-01T04:21:56;18.20;84.50
25440;DHT22;13365;52.208;5.488;2022-09-01T04:24:24;18.20;84.00
25440;DHT22;13365;52.208;5.488;2022-09-01T04:26:52;18.30;83.70
25440;DHT22;13365;52.208;5.488;2022-09-01T04:29:19;18.20;83.40
25440;DHT22;13365;52.208;5.488;2022-09-01T04:31:48;18.20;83.30
25440;DHT22;13365;52.208;5.488;2022-09-01T04:34:18;18.20;83.10
25440;DHT22;13365;52.208;5.488;2022-09-01T04:36:44;18.20;82.80
25440;DHT22;13365;52.208;5.488;2022-09-01T04:39:11;18.20;82.80
25440;DHT22;13365;52.208;5.488;2022-09-01T04:41:39;18.20;82.50
25440;DHT22;13365;52.208;5.488;2022-09-01T04:44:05;18.30;82.20
25440;DHT22;13365;52.208;5.488;2022-09-01T04:46:35;18.40;81.80
25440;DHT22;13365;52.208;5.488;2022-09-01T04:49:04;18.40;82.50
25440;DHT22;13365;52.208;5.488;2022-09-01T04:51:36;18.40;81.60
25440;DHT22;13365;52.208;5.488;2022-09-01T04:54:03;18.20;81.40
25440;DHT22;13365;52.208;5.488;2022-09-01T04:56:28;18.30;81.60
25440;DHT22;13365;52.208;5.488;2022-09-01T04:58:59;18.40;81.50
25440;DHT22;13365;52.208;5.488;2022-09-01T05:01:25;18.50;81.10
25440;DHT22;13365;52.208;5.488;2022-09-01T05:03:51;18.60;80.70
25440;DHT22;13365;52.208;5.488;2022-09-01T05:06:27;18.80;80.30
25440;DHT22;13365;52.208;5.488;2022-09-01T05:08:53;18.80;79.80
25440;DHT22;13365;52.208;5.488;2022-09-01T05:11:22;18.90;79.60
25440;DHT22;13365;52.208;5.488;2022-09-01T05:13:48;18.90;79.30
25440;DHT22;13365;52.208;5.488;2022-09-01T05:16:16;18.90;79.20
25440;DHT22;13365;52.208;5.488;2022-09-01T05:18:44;18.80;79.20
25440;DHT22;13365;52.208;5.488;2022-09-01T05:21:12;18.90;79.20
25440;DHT22;13365;52.208;5.488;2022-09-01T05:23:41;18.90;78.90
25440;DHT22;13365;52.208;5.488;2022-09-01T05:26:13;18.90;78.90
25440;DHT22;13365;52.208;5.488;2022-09-01T05:28:45;18.80;79.10
25440;DHT22;13365;52.208;5.488;2022-09-01T05:31:10;18.80;80.10
25440;DHT22;13365;52.208;5.488;2022-09-01T05:33:38;18.80;79.00
25440;DHT22;13365;52.208;5.488;2022-09-01T05:36:20;18.90;79.10
25440;DHT22;13365;52.208;5.488;2022-09-01T05:38:46;18.80;79.40
25440;DHT22;13365;52.208;5.488;2022-09-01T05:41:12;18.90;79.30
25440;DHT22;13365;52.208;5.488;2022-09-01T05:43:39;18.80;79.40
25440;DHT22;13365;52.208;5.488;2022-09-01T05:46:09;18.80;79.50
25440;DHT22;13365;52.208;5.488;2022-09-01T05:48:34;18.80;79.40
25440;DHT22;13365;52.208;5.488;2022-09-01T05:51:05;18.90;79.50
25440;DHT22;13365;52.208;5.488;2022-09-01T05:53:31;18.90;79.20
25440;DHT22;13365;52.208;5.488;2022-09-01T05:55:58;19.10;79.10
25440;DHT22;13365;52.208;5.488;2022-09-01T05:58:25;19.30;78.50
25440;DHT22;13365;52.208;5.488;2022-09-01T06:00:51;19.30;77.70
25440;DHT22;13365;52.208;5.488;2022-09-01T06:03:18;19.20;78.40
25440;DHT22;13365;52.208;5.488;2022-09-01T06:05:44;19.30;78.70
25440;DHT22;13365;52.208;5.488;2022-09-01T06:08:17;19.40;78.40
25440;DHT22;13365;52.208;5.488;2022-09-01T06:10:43;19.40;77.90
25440;DHT22;13365;52.208;5.488;2022-09-01T06:13:09;19.50;78.10
25440;DHT22;13365;52.208;5.488;2022-09-01T06:15:36;19.80;77.70
25440;DHT22;13365;52.208;5.488;2022-09-01T06:18:04;20.00;76.90
25440;DHT22;13365;52.208;5.488;2022-09-01T06:20:30;20.10;77.40
25440;DHT22;13365;52.208;5.488;2022-09-01T06:22:55;20.30;76.40
25440;DHT22;13365;52.208;5.488;2022-09-01T06:25:21;20.30;76.30
25440;DHT22;13365;52.208;5.488;2022-09-01T06:27:46;20.50;76.20
25440;DHT22;13365;52.208;5.488;2022-09-01T06:30:13;20.70;75.40
25440;DHT22;13365;52.208;5.488;2022-09-01T06:32:42;20.80;75.00
25440;DHT22;13365;52.208;5.488;2022-09-01T06:35:12;20.90;74.40
25440;DHT22;13365;52.208;5.488;2022-09-01T06:37:40;21.10;74.20
25440;DHT22;13365;52.208;5.488;2022-09-01T06:40:07;21.00;73.10
25440;DHT22;13365;52.208;5.488;2022-09-01T06:42:48;21.20;72.50
25440;DHT22;13365;52.208;5.488;2022-09-01T06:45:15;21.20;72.70
25440;DHT22;13365;52.208;5.488;2022-09-01T06:47:42;21.40;72.10
25440;DHT22;13365;52.208;5.488;2022-09-01T06:50:10;21.40;71.20
25440;DHT22;13365;52.208;5.488;2022-09-01T06:52:37;21.50;70.30
25440;DHT22;13365;52.208;5.488;2022-09-01T06:55:05;21.50;71.00
25440;DHT22;13365;52.208;5.488;2022-09-01T06:57:30;21.60;71.20
25440;DHT22;13365;52.208;5.488;2022-09-01T06:59:55;21.70;70.70
25440;DHT22;13365;52.208;5.488;2022-09-01T07:02:21;21.80;70.00
25440;DHT22;13365;52.208;5.488;2022-09-01T07:04:46;21.80;69.00
25440;DHT22;13365;52.208;5.488;2022-09-01T07:07:14;21.80;69.00
25440;DHT22;13365;52.208;5.488;2022-09-01T07:09:39;22.00;70.00
25440;DHT22;13365;52.208;5.488;2022-09-01T07:12:05;22.20;68.50
25440;DHT22;13365;52.208;5.488;2022-09-01T07:14:31;22.20;67.90
25440;DHT22;13365;52.208;5.488;2022-09-01T07:16:56;22.30;67.60
25440;DHT22;13365;52.208;5.488;2022-09-01T07:19:22;22.40;67.80
25440;DHT22;13365;52.208;5.488;2022-09-01T07:21:50;22.50;66.20
25440;DHT22;13365;52.208;5.488;2022-09-01T07:24:16;22.50;67.10
25440;DHT22;13365;52.208;5.488;2022-09-01T07:26:42;22.80;66.50
25440;DHT22;13365;52.208;5.488;2022-09-01T07:29:08;23.10;66.50
25440;DHT22;13365;52.208;5.488;2022-09-01T07:31:35;23.20;66.00
25440;DHT22;13365;52.208;5.488;2022-09-01T07:34:04;23.50;65.90
25440;DHT22;13365;52.208;5.488;2022-09-01T07:36:31;23.80;64.80
25440;DHT22;13365;52.208;5.488;2022-09-01T07:38:57;23.90;62.80
25440;DHT22;13365;52.208;5.488;2022-09-01T07:41:25;24.10;62.00
25440;DHT22;13365;52.208;5.488;2022-09-01T07:43:51;24.40;62.50
25440;DHT22;13365;52.208;5.488;2022-09-01T07:46:18;24.50;61.70
25440;DHT22;13365;52.208;5.488;2022-09-01T07:48:43;24.70;61.20
25440;DHT22;13365;52.208;5.488;2022-09-01T07:51:11;24.80;60.40
25440;DHT22;13365;52.208;5.488;2022-09-01T07:53:37;25.10;61.10
25440;DHT22;13365;52.208;5.488;2022-09-01T07:56:06;25.30;60.10
25440;DHT22;13365;52.208;5.488;2022-09-01T07:58:34;25.50;60.00
25440;DHT22;13365;52.208;5.488;2022-09-01T08:00:59;25.70;59.80
25440;DHT22;13365;52.208;5.488;2022-09-01T08:03:28;25.90;57.30
25440;DHT22;13365;52.208;5.488;2022-09-01T08:05:54;25.90;58.50
25440;DHT22;13365;52.208;5.488;2022-09-01T08:08:25;26.10;57.30
25440;DHT22;13365;52.208;5.488;2022-09-01T08:10:51;26.10;57.50
25440;DHT22;13365;52.208;5.488;2022-09-01T08:13:17;26.30;58.20
25440;DHT22;13365;52.208;5.488;2022-09-01T08:15:43;26.50;56.60
25440;DHT22;13365;52.208;5.488;2022-09-01T08:18:08;26.80;56.30
25440;DHT22;13365;52.208;5.488;2022-09-01T08:20:36;27.00;57.20
25440;DHT22;13365;52.208;5.488;2022-09-01T08:23:04;27.20;55.70
25440;DHT22;13365;52.208;5.488;2022-09-01T08:25:31;27.20;55.20
25440;DHT22;13365;52.208;5.488;2022-09-01T08:27:57;27.20;54.90
25440;DHT22;13365;52.208;5.488;2022-09-01T08:30:22;27.20;54.80
25440;DHT22;13365;52.208;5.488;2022-09-01T08:32:48;27.40;55.70
25440;DHT22;13365;52.208;5.488;2022-09-01T08:35:14;27.80;55.10
25440;DHT22;13365;52.208;5.488;2022-09-01T08:37:40;28.10;53.90
25440;DHT22;13365;52.208;5.488;2022-09-01T08:40:07;28.10;53.80
25440;DHT22;13365;52.208;5.488;2022-09-01T08:42:39;28.10;53.80
25440;DHT22;13365;52.208;5.488;2022-09-01T08:47:33;28.50;52.70
25440;DHT22;13365;52.208;5.488;2022-09-01T08:50:00;28.30;51.10
25440;DHT22;13365;52.208;5.488;2022-09-01T08:52:33;28.20;53.20
25440;DHT22;13365;52.208;5.488;2022-09-01T08:55:07;28.20;52.00
25440;DHT22;13365;52.208;5.488;2022-09-01T08:57:39;28.40;53.10
25440;DHT22;13365;52.208;5.488;2022-09-01T09:00:06;28.80;52.10
25440;DHT22;13365;52.208;5.488;2022-09-01T09:02:38;29.00;50.30
25440;DHT22;13365;52.208;5.488;2022-09-01T09:05:12;29.00;49.70
25440;DHT22;13365;52.208;5.488;2022-09-01T09:10:31;29.30;48.10
25440;DHT22;13365;52.208;5.488;2022-09-01T09:13:07;29.10;49.70
25440;DHT22;13365;52.208;5.488;2022-09-01T09:18:11;28.90;49.80
25440;DHT22;13365;52.208;5.488;2022-09-01T09:20:38;29.00;50.10
25440;DHT22;13365;52.208;5.488;2022-09-01T09:23:06;29.20;48.80
25440;DHT22;13365;52.208;5.488;2022-09-01T09:25:36;29.30;47.70
25440;DHT22;13365;52.208;5.488;2022-09-01T09:28:01;29.40;47.70
25440;DHT22;13365;52.208;5.488;2022-09-01T09:30:28;29.50;48.70
25440;DHT22;13365;52.208;5.488;2022-09-01T09:32:55;29.60;49.10
25440;DHT22;13365;52.208;5.488;2022-09-01T09:35:24;29.80;47.30
25440;DHT22;13365;52.208;5.488;2022-09-01T09:37:50;30.00;47.70
25440;DHT22;13365;52.208;5.488;2022-09-01T09:40:17;30.20;46.40
25440;DHT22;13365;52.208;5.488;2022-09-01T09:45:37;30.30;46.70
25440;DHT22;13365;52.208;5.488;2022-09-01T09:48:04;30.20;46.20
25440;DHT22;13365;52.208;5.488;2022-09-01T09:50:31;30.20;45.60
25440;DHT22;13365;52.208;5.488;2022-09-01T09:55:52;29.60;45.50
25440;DHT22;13365;52.208;5.488;2022-09-01T09:58:19;29.40;48.50
25440;DHT22;13365;52.208;5.488;2022-09-01T10:00:57;29.50;47.50
25440;DHT22;13365;52.208;5.488;2022-09-01T10:03:33;29.80;46.80
25440;DHT22;13365;52.208;5.488;2022-09-01T10:06:00;29.90;46.90
25440;DHT22;13365;52.208;5.488;2022-09-01T10:10:51;29.80;45.20
25440;DHT22;13365;52.208;5.488;2022-09-01T10:13:18;29.70;45.90
25440;DHT22;13365;52.208;5.488;2022-09-01T10:15:48;29.80;46.40
25440;DHT22;13365;52.208;5.488;2022-09-01T10:18:15;30.30;45.80
25440;DHT22;13365;52.208;5.488;2022-09-01T10:20:44;30.30;44.50
25440;DHT22;13365;52.208;5.488;2022-09-01T10:23:13;30.30;44.40
25440;DHT22;13365;52.208;5.488;2022-09-01T10:25:38;30.30;45.20
25440;DHT22;13365;52.208;5.488;2022-09-01T10:28:08;30.60;43.80
25440;DHT22;13365;52.208;5.488;2022-09-01T10:30:36;30.40;45.00
25440;DHT22;13365;52.208;5.488;2022-09-01T10:33:07;30.40;44.10
25440;DHT22;13365;52.208;5.488;2022-09-01T10:35:33;30.30;45.20
25440;DHT22;13365;52.208;5.488;2022-09-01T10:38:02;30.50;43.50
25440;DHT22;13365;52.208;5.488;2022-09-01T10:40:35;30.30;42.70
25440;DHT22;13365;52.208;5.488;2022-09-01T10:45:47;30.60;43.80
25440;DHT22;13365;52.208;5.488;2022-09-01T10:50:44;30.80;43.20
25440;DHT22;13365;52.208;5.488;2022-09-01T10:53:35;30.50;42.10
25440;DHT22;13365;52.208;5.488;2022-09-01T10:56:43;30.20;42.60
25440;DHT22;13365;52.208;5.488;2022-09-01T11:02:23;30.30;42.70
25440;DHT22;13365;52.208;5.488;2022-09-01T11:05:08;30.20;42.30
25440;DHT22;13365;52.208;5.488;2022-09-01T11:12:40;30.30;41.80
25440;DHT22;13365;52.208;5.488;2022-09-01T11:17:38;31.00;41.10
25440;DHT22;13365;52.208;5.488;2022-09-01T11:20:25;31.20;42.80
25440;DHT22;13365;52.208;5.488;2022-09-01T11:23:01;31.40;42.40
25440;DHT22;13365;52.208;5.488;2022-09-01T11:25:33;31.80;41.80
25440;DHT22;13365;52.208;5.488;2022-09-01T11:30:32;32.20;40.40
25440;DHT22;13365;52.208;5.488;2022-09-01T11:33:02;32.10;41.00
25440;DHT22;13365;52.208;5.488;2022-09-01T11:35:30;32.10;40.00
25440;DHT22;13365;52.208;5.488;2022-09-01T11:37:56;31.90;39.70
25440;DHT22;13365;52.208;5.488;2022-09-01T11:40:27;31.60;39.60
25440;DHT22;13365;52.208;5.488;2022-09-01T11:42:54;31.40;40.00
25440;DHT22;13365;52.208;5.488;2022-09-01T11:45:30;31.20;41.80
25440;DHT22;13365;52.208;5.488;2022-09-01T11:47:57;31.00;42.70
25440;DHT22;13365;52.208;5.488;2022-09-01T11:50:29;31.20;40.80
25440;DHT22;13365;52.208;5.488;2022-09-01T11:53:00;31.30;40.80
25440;DHT22;13365;52.208;5.488;2022-09-01T11:56:10;31.60;41.60
25440;DHT22;13365;52.208;5.488;2022-09-01T12:03:35;32.40;40.70
25440;DHT22;13365;52.208;5.488;2022-09-01T12:06:03;32.00;40.00
25440;DHT22;13365;52.208;5.488;2022-09-01T12:08:33;31.80;41.00
25440;DHT22;13365;52.208;5.488;2022-09-01T12:11:03;31.80;41.80
25440;DHT22;13365;52.208;5.488;2022-09-01T12:13:29;31.90;40.60
25440;DHT22;13365;52.208;5.488;2022-09-01T12:15:56;31.90;41.80
25440;DHT22;13365;52.208;5.488;2022-09-01T12:18:24;32.00;40.80
25440;DHT22;13365;52.208;5.488;2022-09-01T12:20:51;32.20;42.30
25440;DHT22;13365;52.208;5.488;2022-09-01T12:23:25;32.10;41.40
25440;DHT22;13365;52.208;5.488;2022-09-01T12:25:54;32.20;41.40
25440;DHT22;13365;52.208;5.488;2022-09-01T12:28:21;32.00;41.70
25440;DHT22;13365;52.208;5.488;2022-09-01T12:30:48;32.10;41.20
25440;DHT22;13365;52.208;5.488;2022-09-01T12:33:16;32.20;41.30
25440;DHT22;13365;52.208;5.488;2022-09-01T12:35:41;32.30;40.90
25440;DHT22;13365;52.208;5.488;2022-09-01T12:40:42;32.00;42.00
25440;DHT22;13365;52.208;5.488;2022-09-01T12:43:08;31.90;39.50
25440;DHT22;13365;52.208;5.488;2022-09-01T12:45:38;31.90;41.10
25440;DHT22;13365;52.208;5.488;2022-09-01T12:48:04;31.70;41.20
25440;DHT22;13365;52.208;5.488;2022-09-01T12:52:56;31.30;42.30
25440;DHT22;13365;52.208;5.488;2022-09-01T12:55:27;31.30;43.90
25440;DHT22;13365;52.208;5.488;2022-09-01T12:57:56;31.40;41.70
25440;DHT22;13365;52.208;5.488;2022-09-01T13:00:24;31.10;42.10
25440;DHT22;13365;52.208;5.488;2022-09-01T13:05:26;31.10;42.50
25440;DHT22;13365;52.208;5.488;2022-09-01T13:07:53;31.00;41.30
25440;DHT22;13365;52.208;5.488;2022-09-01T13:10:19;30.70;41.60
25440;DHT22;13365;52.208;5.488;2022-09-01T13:12:46;30.50;43.10
25440;DHT22;13365;52.208;5.488;2022-09-01T13:15:12;30.40;42.80
25440;DHT22;13365;52.208;5.488;2022-09-01T13:17:37;30.40;42.20
25440;DHT22;13365;52.208;5.488;2022-09-01T13:20:04;30.30;43.00
25440;DHT22;13365;52.208;5.488;2022-09-01T13:22:30;30.30;41.30
25440;DHT22;13365;52.208;5.488;2022-09-01T13:24:55;30.40;42.30
25440;DHT22;13365;52.208;5.488;2022-09-01T13:27:20;30.70;42.70
25440;DHT22;13365;52.208;5.488;2022-09-01T13:29:47;30.70;41.70
25440;DHT22;13365;52.208;5.488;2022-09-01T13:32:13;30.40;41.70
25440;DHT22;13365;52.208;5.488;2022-09-01T13:34:39;30.10;41.40
25440;DHT22;13365;52.208;5.488;2022-09-01T13:37:05;30.00;42.60
25440;DHT22;13365;52.208;5.488;2022-09-01T13:39:30;30.00;42.90
25440;DHT22;13365;52.208;5.488;2022-09-01T13:41:56;29.90;41.40
25440;DHT22;13365;52.208;5.488;2022-09-01T13:44:22;29.40;42.70
25440;DHT22;13365;52.208;5.488;2022-09-01T13:46:47;29.60;43.50
25440;DHT22;13365;52.208;5.488;2022-09-01T13:49:13;29.70;42.00
25440;DHT22;13365;52.208;5.488;2022-09-01T13:51:38;29.70;42.80
25440;DHT22;13365;52.208;5.488;2022-09-01T13:54:04;29.70;42.60
25440;DHT22;13365;52.208;5.488;2022-09-01T13:56:30;30.00;42.80
25440;DHT22;13365;52.208;5.488;2022-09-01T13:58:55;30.20;43.60
25440;DHT22;13365;52.208;5.488;2022-09-01T14:01:21;30.20;41.80
25440;DHT22;13365;52.208;5.488;2022-09-01T14:03:47;30.20;41.70
25440;DHT22;13365;52.208;5.488;2022-09-01T14:06:13;30.10;42.50
25440;DHT22;13365;52.208;5.488;2022-09-01T14:08:39;30.20;41.50
25440;DHT22;13365;52.208;5.488;2022-09-01T14:11:04;30.30;41.20
25440;DHT22;13365;52.208;5.488;2022-09-01T14:13:30;30.20;40.80
25440;DHT22;13365;52.208;5.488;2022-09-01T14:15:57;29.80;41.20
25440;DHT22;13365;52.208;5.488;2022-09-01T14:18:23;29.50;42.40
25440;DHT22;13365;52.208;5.488;2022-09-01T14:20:50;29.50;42.70
25440;DHT22;13365;52.208;5.488;2022-09-01T14:23:16;29.60;42.30
25440;DHT22;13365;52.208;5.488;2022-09-01T14:25:46;29.80;42.90
25440;DHT22;13365;52.208;5.488;2022-09-01T14:28:13;29.90;43.10
25440;DHT22;13365;52.208;5.488;2022-09-01T14:30:39;29.80;42.40
25440;DHT22;13365;52.208;5.488;2022-09-01T14:33:06;29.40;41.60
25440;DHT22;13365;52.208;5.488;2022-09-01T14:35:32;29.40;42.70
25440;DHT22;13365;52.208;5.488;2022-09-01T14:37:58;29.30;41.70
25440;DHT22;13365;52.208;5.488;2022-09-01T14:40:24;29.30;42.00
25440;DHT22;13365;52.208;5.488;2022-09-01T14:42:50;29.20;41.80
25440;DHT22;13365;52.208;5.488;2022-09-01T14:45:17;29.30;43.30
25440;DHT22;13365;52.208;5.488;2022-09-01T14:47:45;29.50;43.10
25440;DHT22;13365;52.208;5.488;2022-09-01T14:50:11;29.60;42.30
25440;DHT22;13365;52.208;5.488;2022-09-01T14:52:36;29.70;42.40
25440;DHT22;13365;52.208;5.488;2022-09-01T14:55:02;29.80;42.60
25440;DHT22;13365;52.208;5.488;2022-09-01T14:57:29;29.80;42.40
25440;DHT22;13365;52.208;5.488;2022-09-01T14:59:54;29.70;42.30
25440;DHT22;13365;52.208;5.488;2022-09-01T15:02:20;29.50;42.30
25440;DHT22;13365;52.208;5.488;2022-09-01T15:04:46;29.30;41.80
25440;DHT22;13365;52.208;5.488;2022-09-01T15:07:11;29.20;42.00
25440;DHT22;13365;52.208;5.488;2022-09-01T15:09:37;29.10;43.00
25440;DHT22;13365;52.208;5.488;2022-09-01T15:12:03;29.20;42.30
25440;DHT22;13365;52.208;5.488;2022-09-01T15:14:28;29.30;43.00
25440;DHT22;13365;52.208;5.488;2022-09-01T15:16:54;29.40;43.10
25440;DHT22;13365;52.208;5.488;2022-09-01T15:19:19;29.30;42.10
25440;DHT22;13365;52.208;5.488;2022-09-01T15:21:45;29.20;42.40
25440;DHT22;13365;52.208;5.488;2022-09-01T15:24:11;29.20;41.60
25440;DHT22;13365;52.208;5.488;2022-09-01T15:26:36;29.30;42.70
25440;DHT22;13365;52.208;5.488;2022-09-01T15:29:05;29.30;42.40
25440;DHT22;13365;52.208;5.488;2022-09-01T15:31:31;29.20;42.50
25440;DHT22;13365;52.208;5.488;2022-09-01T15:33:58;29.00;42.90
25440;DHT22;13365;52.208;5.488;2022-09-01T15:36:25;28.80;43.30
25440;DHT22;13365;52.208;5.488;2022-09-01T15:38:52;28.70;43.20
25440;DHT22;13365;52.208;5.488;2022-09-01T15:41:22;28.70;43.70
25440;DHT22;13365;52.208;5.488;2022-09-01T15:43:48;28.90;43.30
25440;DHT22;13365;52.208;5.488;2022-09-01T15:46:14;29.00;42.40
25440;DHT22;13365;52.208;5.488;2022-09-01T15:48:40;29.10;42.20
25440;DHT22;13365;52.208;5.488;2022-09-01T15:53:37;29.40;43.40
25440;DHT22;13365;52.208;5.488;2022-09-01T15:56:02;29.60;42.70
25440;DHT22;13365;52.208;5.488;2022-09-01T15:58:29;29.90;42.10
25440;DHT22;13365;52.208;5.488;2022-09-01T16:00:54;30.20;41.40
25440;DHT22;13365;52.208;5.488;2022-09-01T16:03:20;30.70;40.60
25440;DHT22;13365;52.208;5.488;2022-09-01T16:05:48;31.10;40.80
25440;DHT22;13365;52.208;5.488;2022-09-01T16:08:13;31.90;40.20
25440;DHT22;13365;52.208;5.488;2022-09-01T16:10:39;32.60;38.50
25440;DHT22;13365;52.208;5.488;2022-09-01T16:13:06;33.10;37.40
25440;DHT22;13365;52.208;5.488;2022-09-01T16:15:32;33.60;38.30
25440;DHT22;13365;52.208;5.488;2022-09-01T16:20:26;35.00;36.30
25440;DHT22;13365;52.208;5.488;2022-09-01T16:22:57;35.50;34.80
25440;DHT22;13365;52.208;5.488;2022-09-01T16:25:30;36.00;35.90
25440;DHT22;13365;52.208;5.488;2022-09-01T16:27:56;36.10;33.40